Current Weather

Westchester County

White Plains, New York (KHPN)

Report from: Tuesday, June 18, 2024 6:56 AM EDT
Current time: Tuesday, June 18, 2024 7:47 AM EDT

Nearby weather – Weather history – Daily summaries
Weather forecast

Temperature22.2°C (72.0°F)
Dew point18.3°C (64.9°F)
Winds 4 kts (2.1 m/s, 4.6 mph) West-Southwest (250°)
Visibility10 mi. (16.1 km)
Clouds Sky clear
Altimeter30.23 in.Hg (1024 mB)
Relative humidity79 %
Density altitude794 ft. (242 m)
Sea-level pressure102.3 kPa (1023 mB, 30.21 in.Hg)
Remarks Automated weather observing station with precipitation discriminator
Flight conditions Visual Meteorological Conditions
Raw dataKHPN 181056Z 25004KT 10SM CLR 22/18 A3023 RMK AO2 SLP231 T02220183
An error has occurred. This application may no longer respond until reloaded. Reload 🗙